createdAt,value
2022-09-14T00:21:52.370Z,11
2022-09-14T00:50:45.539Z,12
2022-09-14T01:19:35.686Z,13
2022-09-14T01:48:30.233Z,10
2022-09-14T02:17:21.935Z,12
2022-09-14T02:46:09.334Z,11
2022-09-14T03:14:55.068Z,12
2022-09-14T03:43:48.740Z,14
2022-09-14T04:12:39.008Z,10
2022-09-14T04:41:34.035Z,10
2022-09-14T05:10:23.394Z,12
2022-09-14T05:39:11.701Z,10
2022-09-14T06:08:01.989Z,10
2022-09-14T06:36:32.346Z,9
2022-09-14T07:05:27.271Z,14
2022-09-14T07:34:24.164Z,8
2022-09-14T08:03:17.848Z,7
2022-09-14T08:32:12.868Z,7
2022-09-14T09:00:47.875Z,7
2022-09-14T09:29:12.137Z,7
2022-09-14T09:57:55.476Z,7
2022-09-14T10:26:57.401Z,7
2022-09-14T10:55:50.823Z,8
2022-09-14T11:24:22.600Z,6
2022-09-14T11:52:54.605Z,7
2022-09-14T12:21:33.533Z,4
2022-09-14T12:50:28.710Z,3
2022-09-14T13:18:58.401Z,1
2022-09-14T13:47:30.239Z,1
2022-09-14T14:16:09.855Z,1
2022-09-14T14:44:54.284Z,3
2022-09-14T15:13:22.577Z,3
2022-09-14T15:42:03.527Z,4
2022-09-14T16:10:46.147Z,5
2022-09-14T16:39:35.617Z,4
2022-09-14T17:08:28.097Z,4
2022-09-14T17:36:58.153Z,4
2022-09-14T18:05:39.640Z,4
2022-09-14T18:34:08.358Z,4
2022-09-14T19:02:54.528Z,4
2022-09-14T19:31:25.729Z,4
2022-09-14T19:59:45.868Z,4
2022-09-14T20:28:54.053Z,7
2022-09-14T20:57:20.777Z,6
2022-09-14T21:26:06.782Z,6
2022-09-14T21:54:50.025Z,4
2022-09-14T22:23:41.468Z,4
2022-09-14T22:52:37.095Z,4
2022-09-14T23:21:28.133Z,4
2022-09-14T23:50:17.686Z,3
